Time;durP1;ratioP1;P1;durP2;ratioP2;P2;SDS_P1;SDS_P2;PMS_P1;PMS_P2;Temp;Humidity;BMP_temperature;BMP_pressure;BME280_temperature;BME280_humidity;BME280_pressure;Samples;Min_cycle;Max_cycle;Signal;HPM_P1;HPM_P2
2021/10/09 00:00:59;;;;;;;45.40;31.02;;;;;;;;;;4286246;33;20243;-78
2021/10/09 00:03:27;;;;;;;48.40;32.63;;;;;;;;;;4300507;33;20199;-79
2021/10/09 00:05:55;;;;;;;47.00;32.30;;;;;;;;;;4300111;33;20499;-79
2021/10/09 00:08:41;;;;;;;57.05;35.40;;;;;;;;;;4300853;33;20168;-79
2021/10/09 00:14:14;;;;;;;53.25;35.33;;;;;;;;;;4276291;33;20190;-79
2021/10/09 00:16:49;;;;;;;58.70;35.97;;;;;;;;;;4287780;33;20595;-79
2021/10/09 00:19:15;;;;;;;59.38;37.28;;;;;;;;;;4287956;33;20184;-79
2021/10/09 00:22:23;;;;;;;56.67;35.72;;;;;;;;;;4288395;33;20179;-79
2021/10/09 00:25:19;;;;;;;52.33;34.97;;;;;;;;;;4298197;33;20165;-80
2021/10/09 00:27:17;;;;;;;54.70;34.15;;;;;;;;;;4294745;33;20165;-79
2021/10/09 00:29:55;;;;;;;;;;;;;;;;;;;;;
2021/10/09 00:35:42;;;;;;;62.83;37.67;;;;;;;;;;4298207;33;20209;-78
2021/10/09 00:38:17;;;;;;;56.25;35.58;;;;;;;;;;4292615;33;20153;-79
2021/10/09 00:40:42;;;;;;;56.05;36.72;;;;;;;;;;4302768;33;20203;-79
2021/10/09 00:43:10;;;;;;;72.45;40.22;;;;;;;;;;4296313;33;20160;-78
2021/10/09 00:45:45;;;;;;;54.55;34.72;;;;;;;;;;4289957;33;20182;-78
2021/10/09 00:48:19;;;;;;;59.10;36.97;;;;;;;;;;4289998;33;20148;-79
2021/10/09 00:51:13;;;;;;;54.85;35.92;;;;;;;;;;4289497;33;20766;-78
2021/10/09 01:00:43;;;;;;;60.83;37.15;;;;;;;;;;4294436;33;20156;-79
2021/10/09 01:06:23;;;;;;;64.40;39.67;;;;;;;;;;4279659;33;20554;-78
2021/10/09 01:09:23;;;;;;;;;;;;;;;;;;;;;
2021/10/09 01:12:36;;;;;;;59.30;37.70;;;;;;;;;;4287981;33;20206;-79
2021/10/09 01:15:32;;;;;;;67.85;38.92;;;;;;;;;;4284707;33;20198;-78
2021/10/09 01:18:20;;;;;;;59.95;37.97;;;;;;;;;;4289624;33;20198;-79
2021/10/09 01:20:48;;;;;;;59.38;37.50;;;;;;;;;;4288625;33;20234;-78
2021/10/09 01:23:40;;;;;;;69.15;40.67;;;;;;;;;;4289405;33;20157;-78
2021/10/09 01:26:19;;;;;;;63.58;37.20;;;;;;;;;;4296554;33;20230;-78
2021/10/09 01:29:05;;;;;;;68.50;39.70;;;;;;;;;;4288852;33;20203;-78
2021/10/09 01:31:51;;;;;;;60.30;37.25;;;;;;;;;;4289409;33;20191;-78
2021/10/09 01:34:27;;;;;;;57.47;35.55;;;;;;;;;;4285149;33;20161;-79
2021/10/09 01:36:55;;;;;;;67.53;38.72;;;;;;;;;;4289052;33;20168;-78
2021/10/09 01:39:21;;;;;;;61.70;38.70;;;;;;;;;;4289276;33;20223;-79
2021/10/09 01:41:55;;;;;;;79.05;42.85;;;;;;;;;;4302770;33;20159;-79
2021/10/09 01:44:26;;;;;;;76.65;40.05;;;;;;;;;;4289620;33;20152;-79
2021/10/09 01:46:54;;;;;;;62.25;37.45;;;;;;;;;;4289702;33;20200;-79
2021/10/09 01:49:19;;;;;;;69.75;41.13;;;;;;;;;;4287632;33;20164;-78
2021/10/09 01:51:47;;;;;;;74.47;42.88;;;;;;;;;;4286735;33;20219;-79
2021/10/09 01:55:01;;;;;;;67.37;40.47;;;;;;;;;;4283904;33;20958;-79
2021/10/09 01:57:05;;;;;;;67.40;38.17;;;;;;;;;;4296791;33;20190;-79
2021/10/09 01:59:30;;;;;;;68.90;40.25;;;;;;;;;;4288772;33;20160;-79
2021/10/09 02:02:01;;;;;;;66.07;38.75;;;;;;;;;;4288928;33;20544;-78
2021/10/09 02:04:27;;;;;;;66.62;38.55;;;;;;;;;;4300327;33;20220;-78
2021/10/09 02:06:58;;;;;;;72.87;41.00;;;;;;;;;;4301067;33;20595;-78
2021/10/09 02:09:26;;;;;;;77.03;41.88;;;;;;;;;;4292876;33;20172;-78
2021/10/09 02:12:06;;;;;;;75.05;39.53;;;;;;;;;;4302539;33;20148;-78
2021/10/09 02:26:06;;;;;;;81.45;43.70;;;;;;;;;;4285554;33;20219;-78
2021/10/09 02:28:32;;;;;;;77.97;43.80;;;;;;;;;;4273181;33;20169;-79
2021/10/09 02:31:06;;;;;;;76.10;42.53;;;;;;;;;;4286041;33;20152;-78
2021/10/09 02:33:50;;;;;;;;;;;;;;;;;;;;;
2021/10/09 02:36:16;;;;;;;77.22;43.47;;;;;;;;;;4300278;33;20496;-78
2021/10/09 02:38:51;;;;;;;89.28;46.28;;;;;;;;;;4291735;33;20161;-78
2021/10/09 02:41:21;;;;;;;78.25;43.87;;;;;;;;;;4288656;33;20159;-78
2021/10/09 02:43:50;;;;;;;83.45;43.80;;;;;;;;;;4289182;33;20156;-78
2021/10/09 02:46:15;;;;;;;78.93;43.83;;;;;;;;;;4274410;33;20196;-78
2021/10/09 02:48:40;;;;;;;83.20;44.17;;;;;;;;;;4286289;33;20164;-78
2021/10/09 02:51:40;;;;;;;82.40;43.58;;;;;;;;;;4288375;33;20184;-79
2021/10/09 02:54:08;;;;;;;72.07;40.65;;;;;;;;;;4285293;33;20195;-79
2021/10/09 02:56:34;;;;;;;87.00;46.10;;;;;;;;;;4287646;33;20129;-80
2021/10/09 02:58:59;;;;;;;86.07;44.70;;;;;;;;;;4286653;33;20184;-79
2021/10/09 03:01:25;;;;;;;85.45;46.05;;;;;;;;;;4286104;33;20222;-80
2021/10/09 03:03:59;;;;;;;80.07;43.22;;;;;;;;;;4275828;33;20168;-79
2021/10/09 03:06:27;;;;;;;86.45;45.70;;;;;;;;;;4273261;33;20267;-80
2021/10/09 03:09:05;;;;;;;93.37;45.95;;;;;;;;;;4273873;33;20161;-79
2021/10/09 03:11:30;;;;;;;71.00;40.60;;;;;;;;;;4274097;33;20164;-77
2021/10/09 03:13:55;;;;;;;85.28;44.83;;;;;;;;;;4274123;33;20250;-78
2021/10/09 03:16:21;;;;;;;90.55;45.78;;;;;;;;;;4272005;33;20491;-78
2021/10/09 03:21:42;;;;;;;89.82;46.40;;;;;;;;;;4270288;33;20165;-79
2021/10/09 03:24:20;;;;;;;73.87;41.60;;;;;;;;;;4271354;33;20176;-79
2021/10/09 03:26:45;;;;;;;70.60;40.25;;;;;;;;;;4271422;33;20245;-79
2021/10/09 03:29:22;;;;;;;84.95;45.15;;;;;;;;;;4282154;33;20239;-79
2021/10/09 03:31:54;;;;;;;85.97;46.28;;;;;;;;;;4269949;33;20198;-79
2021/10/09 03:34:33;;;;;;;96.18;46.80;;;;;;;;;;4273085;33;20184;-79
2021/10/09 03:37:20;;;;;;;82.97;43.97;;;;;;;;;;4271972;33;20195;-78
2021/10/09 03:40:08;;;;;;;75.10;41.65;;;;;;;;;;4272555;33;20246;-79
2021/10/09 03:49:25;;;;;;;88.15;45.50;;;;;;;;;;4287043;33;20168;-79
2021/10/09 03:53:34;;;;;;;74.30;42.40;;;;;;;;;;4263625;33;20157;-79
2021/10/09 03:55:59;;;;;;;87.53;43.72;;;;;;;;;;4272079;33;20240;-79
2021/10/09 03:58:32;;;;;;;72.87;41.78;;;;;;;;;;4276294;33;20216;-78
2021/10/09 04:00:57;;;;;;;80.87;44.30;;;;;;;;;;4276419;33;20169;-79
2021/10/09 04:03:23;;;;;;;77.82;42.33;;;;;;;;;;4284313;33;20215;-79
2021/10/09 04:05:51;;;;;;;73.03;41.20;;;;;;;;;;4289978;33;20219;-78
2021/10/09 04:11:24;;;;;;;76.10;42.00;;;;;;;;;;4304302;33;20156;-79
2021/10/09 04:14:18;;;;;;;78.05;41.65;;;;;;;;;;4304060;33;20136;-78
2021/10/09 04:16:43;;;;;;;86.50;45.88;;;;;;;;;;4303812;33;20575;-78
2021/10/09 04:19:14;;;;;;;87.95;44.63;;;;;;;;;;4303464;33;20149;-78
2021/10/09 04:21:40;;;;;;;77.62;42.60;;;;;;;;;;4302586;33;20172;-79
2021/10/09 04:26:53;;;;;;;101.97;47.95;;;;;;;;;;4303837;33;20167;-79
2021/10/09 04:29:18;;;;;;;82.07;43.15;;;;;;;;;;4289799;33;20240;-79
2021/10/09 04:31:44;;;;;;;75.93;42.17;;;;;;;;;;4290690;33;20152;-79
2021/10/09 04:34:09;;;;;;;94.85;45.92;;;;;;;;;;4303818;33;20546;-79
2021/10/09 04:36:34;;;;;;;91.37;46.20;;;;;;;;;;4290252;33;20229;-79
2021/10/09 04:39:07;;;;;;;81.90;44.08;;;;;;;;;;4290255;33;20501;-78
2021/10/09 04:41:35;;;;;;;90.15;45.33;;;;;;;;;;4291105;33;20165;-78
2021/10/09 04:44:03;;;;;;;77.82;42.22;;;;;;;;;;4290051;33;20163;-79
2021/10/09 04:46:59;;;;;;;98.22;47.75;;;;;;;;;;4290072;33;20161;-79
2021/10/09 04:49:20;;;;;;;96.03;47.70;;;;;;;;;;4299495;33;20193;-79
2021/10/09 04:51:45;;;;;;;90.12;45.45;;;;;;;;;;4301952;33;20192;-79
2021/10/09 04:54:11;;;;;;;117.07;49.97;;;;;;;;;;4289894;33;20236;-80
2021/10/09 04:56:36;;;;;;;90.82;45.88;;;;;;;;;;4290070;33;20227;-79
2021/10/09 04:59:01;;;;;;;110.20;50.38;;;;;;;;;;4290029;33;20161;-79
2021/10/09 05:01:32;;;;;;;104.38;48.87;;;;;;;;;;4289359;33;20183;-78
2021/10/09 05:03:58;;;;;;;117.53;50.92;;;;;;;;;;4288026;33;20243;-78
2021/10/09 05:06:23;;;;;;;102.55;46.58;;;;;;;;;;4290271;33;20187;-79
2021/10/09 05:08:49;;;;;;;107.20;50.28;;;;;;;;;;4289241;33;20187;-79
2021/10/09 05:11:20;;;;;;;90.85;46.75;;;;;;;;;;4289866;33;20533;-78
2021/10/09 05:13:50;;;;;;;107.80;49.10;;;;;;;;;;4303185;33;20212;-78
2021/10/09 05:16:29;;;;;;;124.35;52.10;;;;;;;;;;4290245;33;20641;-78
2021/10/09 05:18:57;;;;;;;83.87;43.17;;;;;;;;;;4290102;33;20176;-78
2021/10/09 05:21:22;;;;;;;86.87;43.28;;;;;;;;;;4289723;33;20179;-79
2021/10/09 05:23:50;;;;;;;86.45;45.20;;;;;;;;;;4302811;33;20442;-78
2021/10/09 05:26:15;;;;;;;90.82;45.03;;;;;;;;;;4286352;33;20255;-78
2021/10/09 05:28:45;;;;;;;114.97;51.88;;;;;;;;;;4286643;33;20169;-78
2021/10/09 05:31:20;;;;;;;116.90;51.88;;;;;;;;;;4286668;33;20157;-78
2021/10/09 05:33:51;;;;;;;108.97;49.35;;;;;;;;;;4289249;33;20238;-78
2021/10/09 05:36:27;;;;;;;125.45;55.05;;;;;;;;;;4290060;33;20625;-78
2021/10/09 05:38:55;;;;;;;122.28;52.83;;;;;;;;;;4289646;33;20168;-79
2021/10/09 05:41:20;;;;;;;100.07;48.45;;;;;;;;;;4288318;33;20149;-78
2021/10/09 05:43:46;;;;;;;123.68;52.83;;;;;;;;;;4287249;33;20801;-79
2021/10/09 05:46:34;;;;;;;114.75;50.60;;;;;;;;;;4284395;33;20248;-78
2021/10/09 05:49:06;;;;;;;113.10;51.75;;;;;;;;;;4296676;33;20599;-79
2021/10/09 05:51:41;;;;;;;113.97;52.20;;;;;;;;;;4284704;33;20160;-78
2021/10/09 06:43:48;;;;;;;115.80;51.15;;;;;;;;;;4302317;33;20171;-77
2021/10/09 07:00:14;;;;;;;113.68;50.78;;;;;;;;;;4301280;33;20211;-76
2021/10/09 07:02:48;;;;;;;120.57;53.13;;;;;;;;;;4305718;33;20591;-77
2021/10/09 07:05:16;;;;;;;103.78;48.10;;;;;;;;;;4276105;33;20157;-76
2021/10/09 07:07:48;;;;;;;96.87;49.72;;;;;;;;;;4287487;33;20154;-77
2021/10/09 07:10:13;;;;;;;114.35;50.35;;;;;;;;;;4271535;33;20160;-77
2021/10/09 07:12:39;;;;;;;96.40;49.40;;;;;;;;;;4259954;33;20571;-77
2021/10/09 07:15:05;;;;;;;109.15;51.03;;;;;;;;;;4267242;33;20252;-77
2021/10/09 07:17:30;;;;;;;121.13;53.85;;;;;;;;;;4284807;33;20149;-76
2021/10/09 07:19:55;;;;;;;91.82;46.97;;;;;;;;;;4274109;33;20199;-78
2021/10/09 07:22:24;;;;;;;104.15;48.90;;;;;;;;;;4282393;33;20184;-76
2021/10/09 07:24:51;;;;;;;94.72;48.22;;;;;;;;;;4301472;33;20160;-77
2021/10/09 07:27:16;;;;;;;106.25;50.17;;;;;;;;;;4301234;33;20155;-77
2021/10/09 07:29:44;;;;;;;89.80;45.70;;;;;;;;;;4275596;33;20164;-77
2021/10/09 07:32:10;;;;;;;90.78;46.17;;;;;;;;;;4274860;33;20587;-77
2021/10/09 07:34:35;;;;;;;92.95;48.17;;;;;;;;;;4274242;33;20228;-77
2021/10/09 07:37:01;;;;;;;100.68;51.00;;;;;;;;;;4274365;33;20588;-76
2021/10/09 07:39:26;;;;;;;103.62;49.88;;;;;;;;;;4274326;33;20512;-72
2021/10/09 07:42:13;;;;;;;91.05;46.55;;;;;;;;;;4275275;33;20157;-77
2021/10/09 07:44:41;;;;;;;98.12;49.08;;;;;;;;;;4275643;33;20169;-77
2021/10/09 07:47:08;;;;;;;83.70;45.17;;;;;;;;;;4274012;33;20197;-77
2021/10/09 07:49:34;;;;;;;94.65;45.90;;;;;;;;;;4274144;33;20153;-78
2021/10/09 07:51:59;;;;;;;85.70;46.15;;;;;;;;;;4276315;33;20180;-76
2021/10/09 07:54:24;;;;;;;94.97;48.30;;;;;;;;;;4276655;33;20161;-77
2021/10/09 07:56:49;;;;;;;84.97;45.08;;;;;;;;;;4276609;33;20236;-77
2021/10/09 07:59:15;;;;;;;86.18;45.72;;;;;;;;;;4276649;33;20206;-78
2021/10/09 08:01:40;;;;;;;80.40;44.30;;;;;;;;;;4276251;33;20187;-78
2021/10/09 08:04:20;;;;;;;;;;;;;;;;;;;;;
2021/10/09 08:06:45;;;;;;;79.32;41.85;;;;;;;;;;4303796;33;20543;-77
2021/10/09 08:09:32;;;;;;;75.10;42.83;;;;;;;;;;4290847;33;20168;-77
2021/10/09 08:11:58;;;;;;;80.82;44.05;;;;;;;;;;4290943;33;20234;-74
2021/10/09 08:14:26;;;;;;;88.32;45.92;;;;;;;;;;4290723;33;20161;-77
2021/10/09 08:16:56;;;;;;;77.87;42.58;;;;;;;;;;4302765;33;20179;-78
2021/10/09 08:19:21;;;;;;;74.82;42.58;;;;;;;;;;4288507;33;20282;-77
2021/10/09 08:21:50;;;;;;;79.40;44.35;;;;;;;;;;4290350;33;20172;-77
2021/10/09 08:35:33;;;;;;;72.78;40.45;;;;;;;;;;4307879;33;20256;-76
2021/10/09 08:40:43;;;;;;;67.00;39.10;;;;;;;;;;4318686;33;20154;-77
2021/10/09 08:43:09;;;;;;;66.60;38.38;;;;;;;;;;4303522;33;20603;-76
2021/10/09 08:45:34;;;;;;;69.70;40.45;;;;;;;;;;4305063;33;20182;-77
2021/10/09 08:48:02;;;;;;;67.68;40.08;;;;;;;;;;4304763;33;20156;-76
2021/10/09 08:50:32;;;;;;;58.38;36.95;;;;;;;;;;4317611;33;20136;-78
2021/10/09 08:53:07;;;;;;;64.68;38.55;;;;;;;;;;4304136;33;20175;-76
2021/10/09 08:55:43;;;;;;;59.63;37.47;;;;;;;;;;4304639;33;20462;-76
2021/10/09 08:58:26;;;;;;;65.05;39.63;;;;;;;;;;4301015;33;20207;-77
2021/10/09 09:01:03;;;;;;;60.58;36.92;;;;;;;;;;4293110;33;20191;-76
2021/10/09 09:03:55;;;;;;;61.83;38.22;;;;;;;;;;4298935;33;20223;-76
2021/10/09 09:35:53;;;;;;;56.47;33.05;;;;;;;;;;4243622;33;20165;-76
2021/10/09 09:38:54;;;;;;;51.08;32.60;;;;;;;;;;4243919;33;20325;-78
2021/10/09 09:41:26;;;;;;;47.28;31.62;;;;;;;;;;4237531;33;20237;-76
2021/10/09 09:43:55;;;;;;;50.70;32.83;;;;;;;;;;4241854;33;20192;-78
2021/10/09 09:46:30;;;;;;;49.83;33.20;;;;;;;;;;4245385;33;20212;-78
2021/10/09 09:49:03;;;;;;;47.95;31.33;;;;;;;;;;4273874;33;20144;-77
2021/10/09 09:51:35;;;;;;;51.67;33.03;;;;;;;;;;4272672;33;20153;-75
2021/10/09 09:54:00;;;;;;;49.28;31.73;;;;;;;;;;4273436;33;20169;-78
2021/10/09 09:56:49;;;;;;;45.35;31.65;;;;;;;;;;4273157;33;20204;-77
2021/10/09 09:59:17;;;;;;;50.22;31.20;;;;;;;;;;4262153;33;20240;-76
2021/10/09 10:01:45;;;;;;;53.55;31.98;;;;;;;;;;4273861;33;20158;-78
2021/10/09 10:04:11;;;;;;;47.03;30.55;;;;;;;;;;4277842;33;20176;-78
2021/10/09 10:06:36;;;;;;;49.38;31.25;;;;;;;;;;4296846;33;20195;-76
2021/10/09 10:09:02;;;;;;;47.03;29.25;;;;;;;;;;4281873;33;20560;-77
2021/10/09 10:11:28;;;;;;;45.17;29.60;;;;;;;;;;4285139;33;20227;-77
2021/10/09 10:20:17;;;;;;;;;;;;;;;;;;;;;
2021/10/09 10:23:11;;;;;;;46.40;29.63;;;;;;;;;;4271012;33;20572;-77
2021/10/09 10:25:47;;;;;;;43.42;28.30;;;;;;;;;;4255686;33;20221;-76
2021/10/09 10:31:14;;;;;;;45.45;28.80;;;;;;;;;;4296283;33;20183;-78
2021/10/09 10:33:43;;;;;;;41.65;28.58;;;;;;;;;;4288259;33;20609;-77
2021/10/09 10:36:29;;;;;;;38.20;28.05;;;;;;;;;;4287694;33;20161;-78
2021/10/09 10:39:06;;;;;;;41.03;27.37;;;;;;;;;;4288101;33;20235;-77
2021/10/09 10:41:53;;;;;;;42.55;27.92;;;;;;;;;;4301460;33;20546;-76
2021/10/09 10:44:47;;;;;;;42.38;29.85;;;;;;;;;;4296147;33;20149;-77
2021/10/09 10:47:34;;;;;;;44.45;28.15;;;;;;;;;;4288272;33;20160;-78
2021/10/09 10:50:21;;;;;;;41.70;28.23;;;;;;;;;;4288629;33;20227;-77
2021/10/09 10:53:08;;;;;;;44.60;26.90;;;;;;;;;;4288718;33;20160;-79
2021/10/09 10:55:53;;;;;;;41.75;28.87;;;;;;;;;;4301203;33;20171;-78
2021/10/09 10:58:28;;;;;;;44.85;28.90;;;;;;;;;;4290016;33;20646;-77
2021/10/09 11:01:12;;;;;;;39.92;27.27;;;;;;;;;;4303242;33;20187;-79
2021/10/09 11:03:58;;;;;;;38.92;26.30;;;;;;;;;;4302646;33;20605;-78
2021/10/09 11:06:29;;;;;;;32.13;23.27;;;;;;;;;;4302616;33;20536;-76
2021/10/09 11:09:27;;;;;;;30.95;22.87;;;;;;;;;;4302308;33;20164;-77
2021/10/09 11:11:58;;;;;;;35.65;25.45;;;;;;;;;;4315916;33;20132;-77
2021/10/09 11:14:25;;;;;;;36.28;24.90;;;;;;;;;;4302663;33;20156;-76
2021/10/09 11:17:14;;;;;;;32.03;23.85;;;;;;;;;;4302375;33;20165;-77
2021/10/09 11:19:43;;;;;;;38.17;25.20;;;;;;;;;;4300193;33;20160;-77
2021/10/09 11:22:11;;;;;;;30.30;24.10;;;;;;;;;;4302071;33;20584;-79
2021/10/09 11:24:44;;;;;;;32.85;23.17;;;;;;;;;;4315240;33;20140;-76
2021/10/09 11:27:15;;;;;;;27.80;22.45;;;;;;;;;;4301675;33;20202;-77
2021/10/09 11:30:00;;;;;;;30.30;23.17;;;;;;;;;;4302367;33;20156;-77
2021/10/09 11:32:31;;;;;;;29.63;22.85;;;;;;;;;;4301924;33;20513;-77
2021/10/09 11:34:57;;;;;;;28.20;22.40;;;;;;;;;;4301177;33;20217;-78
2021/10/09 11:37:22;;;;;;;24.73;21.70;;;;;;;;;;4302533;33;20160;-76
2021/10/09 11:39:49;;;;;;;27.48;21.42;;;;;;;;;;4302125;33;20509;-76
2021/10/09 11:42:25;;;;;;;;;;;;;;;;;;;;;
2021/10/09 11:53:41;;;;;;;27.67;21.10;;;;;;;;;;4314101;33;20522;-75
2021/10/09 11:56:08;;;;;;;28.38;22.23;;;;;;;;;;4287199;33;20217;-76
2021/10/09 11:58:43;;;;;;;27.23;22.10;;;;;;;;;;4287589;33;20165;-78
2021/10/09 12:01:27;;;;;;;31.15;22.67;;;;;;;;;;4288011;33;20227;-78
2021/10/09 12:03:52;;;;;;;27.85;22.23;;;;;;;;;;4290634;33;20225;-77
2021/10/09 12:06:20;;;;;;;27.60;22.20;;;;;;;;;;4300844;33;20466;-77
2021/10/09 12:08:52;;;;;;;23.55;20.37;;;;;;;;;;4289051;33;20183;-77
2021/10/09 12:11:26;;;;;;;29.73;21.95;;;;;;;;;;4287884;33;20161;-77
2021/10/09 12:13:51;;;;;;;25.60;20.95;;;;;;;;;;4287520;33;20186;-77
2021/10/09 12:16:39;;;;;;;;;;;;;;;;;;;;;
2021/10/09 12:19:14;;;;;;;26.85;22.33;;;;;;;;;;4303841;33;20154;-76
2021/10/09 12:21:51;;;;;;;29.27;22.48;;;;;;;;;;4302898;33;20578;-77
2021/10/09 12:24:18;;;;;;;26.45;20.15;;;;;;;;;;4303094;33;20219;-77
2021/10/09 12:27:12;;;;;;;22.80;20.10;;;;;;;;;;4289681;33;20235;-76
2021/10/09 12:29:58;;;;;;;29.85;21.77;;;;;;;;;;4289474;33;20296;-78
2021/10/09 12:32:23;;;;;;;26.35;19.83;;;;;;;;;;4290361;33;20584;-74
2021/10/09 12:35:05;;;;;;;27.70;21.87;;;;;;;;;;4290168;33;20498;-76
2021/10/09 12:37:39;;;;;;;26.45;21.42;;;;;;;;;;4290198;33;20606;-76
2021/10/09 12:40:40;;;;;;;28.23;21.30;;;;;;;;;;4290369;33;20240;-78
2021/10/09 12:42:59;;;;;;;29.02;21.85;;;;;;;;;;4301334;33;20218;-77
2021/10/09 12:45:48;;;;;;;27.05;20.88;;;;;;;;;;4301469;33;20144;-77
2021/10/09 12:48:18;;;;;;;27.05;20.58;;;;;;;;;;4302815;33;20164;-77
2021/10/09 12:50:46;;;;;;;28.58;21.33;;;;;;;;;;4289809;33;20523;-76
2021/10/09 12:53:14;;;;;;;24.92;20.77;;;;;;;;;;4303834;33;20163;-77
2021/10/09 12:55:41;;;;;;;27.13;21.08;;;;;;;;;;4303175;33;20215;-76
2021/10/09 13:01:00;;;;;;;27.00;20.45;;;;;;;;;;4304035;33;20153;-76
2021/10/09 13:03:26;;;;;;;23.38;18.87;;;;;;;;;;4291056;33;20192;-78
2021/10/09 13:05:51;;;;;;;25.02;18.98;;;;;;;;;;4302174;33;20204;-75
2021/10/09 13:08:21;;;;;;;28.33;20.37;;;;;;;;;;4303551;33;20501;-77
2021/10/09 13:10:49;;;;;;;27.15;19.65;;;;;;;;;;4303357;33;20151;-71
2021/10/09 13:13:14;;;;;;;25.92;19.42;;;;;;;;;;4301176;33;20142;-77
2021/10/09 13:15:50;;;;;;;25.80;19.73;;;;;;;;;;4287393;33;20252;-77
2021/10/09 13:18:19;;;;;;;24.90;19.48;;;;;;;;;;4287361;33;20336;-76
2021/10/09 13:21:14;;;;;;;;;;;;;;;;;;;;;
2021/10/09 13:23:49;;;;;;;23.15;18.92;;;;;;;;;;4284848;33;20183;-78
2021/10/09 13:26:14;;;;;;;31.30;18.75;;;;;;;;;;4301505;33;20494;-74
2021/10/09 13:28:40;;;;;;;23.23;18.43;;;;;;;;;;4302562;33;20581;-77
2021/10/09 13:31:08;;;;;;;25.20;19.30;;;;;;;;;;4302595;33;20364;-77
2021/10/09 13:33:36;;;;;;;24.92;19.27;;;;;;;;;;4301284;33;20575;-77
2021/10/09 13:36:03;;;;;;;30.52;19.08;;;;;;;;;;4301680;33;20182;-77
2021/10/09 13:38:50;;;;;;;26.02;19.45;;;;;;;;;;4301483;33;20168;-77
2021/10/09 13:41:23;;;;;;;25.08;17.40;;;;;;;;;;4300532;33;20164;-79
2021/10/09 13:43:56;;;;;;;20.48;16.85;;;;;;;;;;4288975;33;20558;-77
2021/10/09 13:46:27;;;;;;;23.92;18.00;;;;;;;;;;4285697;33;20235;-78
2021/10/09 13:48:52;;;;;;;26.33;17.02;;;;;;;;;;4287811;33;20144;-77
2021/10/09 13:51:17;;;;;;;24.80;19.33;;;;;;;;;;4283595;33;20243;-77
2021/10/09 13:53:46;;;;;;;23.92;17.77;;;;;;;;;;4283399;33;20149;-77
2021/10/09 13:56:17;;;;;;;31.37;20.10;;;;;;;;;;4283242;33;20191;-77
2021/10/09 13:58:45;;;;;;;24.70;17.30;;;;;;;;;;4286170;33;20161;-77
2021/10/09 14:01:12;;;;;;;27.08;18.62;;;;;;;;;;4286512;33;20260;-76
2021/10/09 14:03:40;;;;;;;25.67;18.65;;;;;;;;;;4289009;33;20188;-77
2021/10/09 14:06:06;;;;;;;21.42;16.17;;;;;;;;;;4289135;33;20164;-76
2021/10/09 14:08:31;;;;;;;27.20;19.17;;;;;;;;;;4289367;33;20156;-77
2021/10/09 14:11:06;;;;;;;27.00;18.83;;;;;;;;;;4302147;33;20159;-77
2021/10/09 14:13:43;;;;;;;26.50;18.85;;;;;;;;;;4301403;33;20161;-77
2021/10/09 14:16:10;;;;;;;23.60;17.30;;;;;;;;;;4288647;33;20218;-75
2021/10/09 14:18:35;;;;;;;22.58;17.10;;;;;;;;;;4288473;33;20172;-76
2021/10/09 14:21:01;;;;;;;25.27;18.52;;;;;;;;;;4286836;33;20231;-77
2021/10/09 14:23:28;;;;;;;22.35;16.75;;;;;;;;;;4285010;33;20185;-77
2021/10/09 14:25:59;;;;;;;23.10;17.00;;;;;;;;;;4285750;33;20220;-77
2021/10/09 14:28:30;;;;;;;27.17;17.90;;;;;;;;;;4285296;33;20284;-76
2021/10/09 14:30:58;;;;;;;25.88;18.60;;;;;;;;;;4284946;33;20587;-77
2021/10/09 14:33:23;;;;;;;27.55;19.77;;;;;;;;;;4284926;33;20215;-76
2021/10/09 14:35:49;;;;;;;25.88;19.33;;;;;;;;;;4288386;33;20611;-77
2021/10/09 14:38:21;;;;;;;29.50;20.75;;;;;;;;;;4301469;33;20145;-78
2021/10/09 14:41:02;;;;;;;26.65;19.30;;;;;;;;;;4288193;33;20195;-76
2021/10/09 14:43:27;;;;;;;29.12;20.70;;;;;;;;;;4302270;33;20165;-76
2021/10/09 14:45:57;;;;;;;29.20;20.03;;;;;;;;;;4301615;33;20482;-77
2021/10/09 14:48:32;;;;;;;26.92;20.95;;;;;;;;;;4288197;33;20279;-77
2021/10/09 14:53:51;;;;;;;30.73;19.90;;;;;;;;;;4301522;33;20152;-77
2021/10/09 15:18:24;;;;;;;41.55;23.80;;;;;;;;;;4295540;33;20651;-76
2021/10/09 15:20:50;;;;;;;38.25;22.13;;;;;;;;;;4300752;33;20174;-76
2021/10/09 15:23:16;;;;;;;35.80;23.48;;;;;;;;;;4287958;33;20247;-76
2021/10/09 15:25:52;;;;;;;54.33;24.33;;;;;;;;;;4288105;33;20161;-75
2021/10/09 15:28:18;;;;;;;31.55;21.70;;;;;;;;;;4288477;33;20160;-75
2021/10/09 15:30:46;;;;;;;34.80;22.08;;;;;;;;;;4288405;33;20239;-76
2021/10/09 15:33:12;;;;;;;33.67;22.98;;;;;;;;;;4287716;33;20163;-76
2021/10/09 15:35:37;;;;;;;35.72;23.38;;;;;;;;;;4288225;33;20494;-76
2021/10/09 15:38:06;;;;;;;31.25;21.67;;;;;;;;;;4300877;33;20152;-76
2021/10/09 15:40:41;;;;;;;39.60;24.58;;;;;;;;;;4287848;33;20219;-76
2021/10/09 15:43:18;;;;;;;36.95;24.15;;;;;;;;;;4301219;33;20148;-76
2021/10/09 15:45:49;;;;;;;31.30;22.25;;;;;;;;;;4288504;33;20191;-76
2021/10/09 15:48:15;;;;;;;40.38;25.27;;;;;;;;;;4276390;33;20177;-77
2021/10/09 15:50:44;;;;;;;43.78;25.50;;;;;;;;;;4288182;33;20183;-75
2021/10/09 15:53:13;;;;;;;47.85;25.50;;;;;;;;;;4303008;33;20136;-77
2021/10/09 15:55:45;;;;;;;39.10;24.60;;;;;;;;;;4290501;33;20188;-76
2021/10/09 15:58:11;;;;;;;35.53;24.10;;;;;;;;;;4290889;33;20219;-76
2021/10/09 16:00:36;;;;;;;41.78;26.85;;;;;;;;;;4303610;33;20172;-75
2021/10/09 16:03:04;;;;;;;37.80;24.77;;;;;;;;;;4289005;33;20179;-76
2021/10/09 16:05:32;;;;;;;36.30;23.58;;;;;;;;;;4289823;33;20157;-77
2021/10/09 16:10:55;;;;;;;37.10;24.45;;;;;;;;;;4296821;33;20582;-76
2021/10/09 16:13:26;;;;;;;37.70;24.63;;;;;;;;;;4276535;33;20471;-75
2021/10/09 16:15:51;;;;;;;37.35;24.00;;;;;;;;;;4276189;33;20158;-75
2021/10/09 16:18:17;;;;;;;41.30;25.90;;;;;;;;;;4289531;33;20171;-76
2021/10/09 16:20:42;;;;;;;36.05;23.70;;;;;;;;;;4275486;33;20161;-75
2021/10/09 16:23:19;;;;;;;44.17;25.15;;;;;;;;;;4288392;33;20141;-77
2021/10/09 16:25:44;;;;;;;39.63;25.45;;;;;;;;;;4276204;33;20149;-77
2021/10/09 16:28:10;;;;;;;37.22;24.70;;;;;;;;;;4288779;33;20479;-75
2021/10/09 16:30:43;;;;;;;40.28;25.58;;;;;;;;;;4275764;33;20161;-75
2021/10/09 16:33:08;;;;;;;45.50;26.02;;;;;;;;;;4276593;33;20216;-76
2021/10/09 16:35:39;;;;;;;38.13;25.70;;;;;;;;;;4275957;33;20540;-76
2021/10/09 16:38:12;;;;;;;44.97;26.87;;;;;;;;;;4269725;33;20173;-76
2021/10/09 16:40:38;;;;;;;45.50;27.52;;;;;;;;;;4263020;33;20179;-77
2021/10/09 16:43:23;;;;;;;43.40;27.50;;;;;;;;;;4288889;33;20148;-76
2021/10/09 16:45:48;;;;;;;41.45;27.95;;;;;;;;;;4288901;33;20186;-76
2021/10/09 16:48:32;;;;;;;49.25;27.42;;;;;;;;;;4275722;33;20467;-75
2021/10/09 16:50:58;;;;;;;42.45;27.27;;;;;;;;;;4273582;33;20235;-76
2021/10/09 16:53:23;;;;;;;43.33;28.25;;;;;;;;;;4275511;33;20168;-77
2021/10/09 16:55:54;;;;;;;41.10;26.67;;;;;;;;;;4267173;33;20653;-77
2021/10/09 16:58:20;;;;;;;48.60;29.48;;;;;;;;;;4277533;33;20169;-77
2021/10/09 17:00:48;;;;;;;44.08;28.23;;;;;;;;;;4271505;33;20168;-76
2021/10/09 17:03:27;;;;;;;43.90;28.15;;;;;;;;;;4286605;33;20641;-75
2021/10/09 17:05:56;;;;;;;43.08;28.33;;;;;;;;;;4291021;33;20137;-76
2021/10/09 17:08:25;;;;;;;47.78;29.98;;;;;;;;;;4263727;33;20157;-77
2021/10/09 17:11:11;;;;;;;45.20;29.95;;;;;;;;;;4275114;33;20227;-77
2021/10/09 17:13:45;;;;;;;44.92;29.35;;;;;;;;;;4287904;33;20210;-76
2021/10/09 17:16:25;;;;;;;49.47;31.05;;;;;;;;;;4274984;33;20157;-76
2021/10/09 17:19:15;;;;;;;51.55;32.58;;;;;;;;;;4275220;33;20165;-77
2021/10/09 17:22:02;;;;;;;;;;;;;;;;;;;;;
2021/10/09 17:24:35;;;;;;;49.65;30.20;;;;;;;;;;4288492;33;20195;-77
2021/10/09 17:27:06;;;;;;;47.90;31.35;;;;;;;;;;4283006;33;20190;-77
2021/10/09 17:29:31;;;;;;;49.35;31.77;;;;;;;;;;4292037;33;20225;-76
2021/10/09 17:31:59;;;;;;;50.90;32.53;;;;;;;;;;4274936;33;20563;-76
2021/10/09 17:34:26;;;;;;;53.92;33.72;;;;;;;;;;4287977;33;20562;-77
2021/10/09 17:37:06;;;;;;;51.58;33.22;;;;;;;;;;4275032;33;20164;-77
2021/10/09 17:39:41;;;;;;;53.95;32.67;;;;;;;;;;4272760;33;20191;-76
2021/10/09 17:42:11;;;;;;;48.92;30.52;;;;;;;;;;4274099;33;20708;-77
2021/10/09 17:44:39;;;;;;;49.55;32.35;;;;;;;;;;4274106;33;20609;-76
2021/10/09 17:47:04;;;;;;;62.35;33.80;;;;;;;;;;4273754;33;20258;-76
2021/10/09 17:49:30;;;;;;;57.00;34.17;;;;;;;;;;4272387;33;20161;-77
2021/10/09 17:51:55;;;;;;;62.85;36.05;;;;;;;;;;4273636;33;20133;-76
2021/10/09 17:54:20;;;;;;;55.90;35.72;;;;;;;;;;4272610;33;20161;-76
2021/10/09 17:56:46;;;;;;;56.50;35.67;;;;;;;;;;4272332;33;20546;-75
2021/10/09 17:59:20;;;;;;;62.45;37.33;;;;;;;;;;4285160;33;20160;-77
2021/10/09 18:01:46;;;;;;;50.42;33.05;;;;;;;;;;4281857;33;20191;-77
2021/10/09 18:04:11;;;;;;;62.20;38.17;;;;;;;;;;4293993;33;20161;-76
2021/10/09 18:06:40;;;;;;;63.47;38.08;;;;;;;;;;4282309;33;20579;-76
2021/10/09 18:09:08;;;;;;;53.92;34.97;;;;;;;;;;4277144;33;20169;-76
2021/10/09 18:11:33;;;;;;;67.20;38.97;;;;;;;;;;4272460;33;20187;-76